LZIB/BTS METAR and TAF weather

Enter ICAO airport designator
Station Type Date Time Source
LZIB METAR 2019/06/18 13:30 UTC NOAA

LZIB 181330Z 05005KT 010V100 CAVOK 28/13 Q1016 NOSIG


Station Type Date Time Source
LZIB Decoded METAR 2019/06/18 13:30 UTC NOAA

Bratislava Ivanka, Slovakia (LZIB) 48-12N 017-12E 142M
Jun 18, 2019 - 09:30 AM EDT / 2019.06.18 1330 UTC
Wind: from the NE (050 degrees) at 6 MPH (5 KT) (direction variable):0
Visibility: greater than 7 mile(s):0
Temperature: 82 F (28 C)
Dew Point: 55 F (13 C)
Relative Humidity: 39%
Pressure (altimeter): 30.00 in. Hg (1016 hPa)
ob: LZIB 181330Z 05005KT 010V100 CAVOK 28/13 Q1016 NOSIG
cycle: 13

Station Type Date Time Source
LZIB TAF 2019/06/18 12:57 UTC NOAA

TAF TAF LZIB 181100Z 1812/1912 03005KT CAVOK
TEMPO 1812/1818 10008KT
BECMG 1906/1908 16008KT 9999 SCT040

Example: see airport list